sensor_id;sensor_type;location;lat;lon;timestamp;P1;durP1;ratioP1;P2;durP2;ratioP2
22318;SDS011;11327;52.334;9.506;2023-06-26T00:00:16;9.13;;;8.25;;
22318;SDS011;11327;52.334;9.506;2023-06-26T00:03:36;9.00;;;7.75;;
22318;SDS011;11327;52.334;9.506;2023-06-26T00:06:57;8.58;;;7.78;;
22318;SDS011;11327;52.334;9.506;2023-06-26T00:10:18;8.55;;;7.65;;
22318;SDS011;11327;52.334;9.506;2023-06-26T00:13:39;8.55;;;7.72;;
22318;SDS011;11327;52.334;9.506;2023-06-26T00:16:59;8.33;;;7.58;;
22318;SDS011;11327;52.334;9.506;2023-06-26T00:20:20;10.15;;;8.23;;
22318;SDS011;11327;52.334;9.506;2023-06-26T00:23:41;9.15;;;8.28;;
22318;SDS011;11327;52.334;9.506;2023-06-26T00:27:01;9.00;;;8.10;;
22318;SDS011;11327;52.334;9.506;2023-06-26T00:30:22;9.08;;;8.08;;
22318;SDS011;11327;52.334;9.506;2023-06-26T00:33:43;9.33;;;8.33;;
22318;SDS011;11327;52.334;9.506;2023-06-26T00:37:03;8.63;;;7.65;;
22318;SDS011;11327;52.334;9.506;2023-06-26T00:40:24;10.43;;;8.05;;
22318;SDS011;11327;52.334;9.506;2023-06-26T00:43:47;8.25;;;7.55;;
22318;SDS011;11327;52.334;9.506;2023-06-26T00:47:07;9.45;;;7.90;;
22318;SDS011;11327;52.334;9.506;2023-06-26T00:50:29;9.30;;;8.33;;
22318;SDS011;11327;52.334;9.506;2023-06-26T00:53:50;8.43;;;7.37;;
22318;SDS011;11327;52.334;9.506;2023-06-26T00:57:11;8.63;;;7.83;;
22318;SDS011;11327;52.334;9.506;2023-06-26T01:00:32;9.40;;;8.43;;
22318;SDS011;11327;52.334;9.506;2023-06-26T01:03:54;9.18;;;7.67;;
22318;SDS011;11327;52.334;9.506;2023-06-26T01:07:15;8.30;;;7.47;;
22318;SDS011;11327;52.334;9.506;2023-06-26T01:10:39;8.58;;;7.45;;
22318;SDS011;11327;52.334;9.506;2023-06-26T01:14:00;9.25;;;7.97;;
22318;SDS011;11327;52.334;9.506;2023-06-26T01:17:22;10.38;;;7.67;;
22318;SDS011;11327;52.334;9.506;2023-06-26T01:20:43;9.65;;;7.78;;
22318;SDS011;11327;52.334;9.506;2023-06-26T01:24:07;8.73;;;7.83;;
22318;SDS011;11327;52.334;9.506;2023-06-26T01:27:32;10.68;;;7.40;;
22318;SDS011;11327;52.334;9.506;2023-06-26T01:30:54;8.40;;;7.53;;
22318;SDS011;11327;52.334;9.506;2023-06-26T01:34:16;9.98;;;7.50;;
22318;SDS011;11327;52.334;9.506;2023-06-26T01:37:38;10.70;;;7.58;;
22318;SDS011;11327;52.334;9.506;2023-06-26T01:40:59;10.25;;;7.58;;
22318;SDS011;11327;52.334;9.506;2023-06-26T01:44:26;11.15;;;7.90;;
22318;SDS011;11327;52.334;9.506;2023-06-26T01:47:53;10.38;;;7.12;;
22318;SDS011;11327;52.334;9.506;2023-06-26T01:51:15;11.80;;;7.83;;
22318;SDS011;11327;52.334;9.506;2023-06-26T01:54:41;9.00;;;7.58;;
22318;SDS011;11327;52.334;9.506;2023-06-26T01:58:09;9.10;;;7.72;;
22318;SDS011;11327;52.334;9.506;2023-06-26T02:01:30;10.63;;;7.95;;
22318;SDS011;11327;52.334;9.506;2023-06-26T02:04:53;10.20;;;7.37;;
22318;SDS011;11327;52.334;9.506;2023-06-26T02:08:14;8.30;;;7.30;;
22318;SDS011;11327;52.334;9.506;2023-06-26T02:11:35;10.30;;;7.72;;
22318;SDS011;11327;52.334;9.506;2023-06-26T02:14:56;10.72;;;8.38;;
22318;SDS011;11327;52.334;9.506;2023-06-26T02:18:17;9.35;;;6.70;;
22318;SDS011;11327;52.334;9.506;2023-06-26T02:21:38;9.00;;;7.10;;
22318;SDS011;11327;52.334;9.506;2023-06-26T02:24:58;9.33;;;7.40;;
22318;SDS011;11327;52.334;9.506;2023-06-26T02:28:19;8.53;;;6.97;;
22318;SDS011;11327;52.334;9.506;2023-06-26T02:31:40;9.50;;;7.47;;
22318;SDS011;11327;52.334;9.506;2023-06-26T02:35:03;8.80;;;6.83;;
22318;SDS011;11327;52.334;9.506;2023-06-26T02:38:24;10.00;;;6.78;;
22318;SDS011;11327;52.334;9.506;2023-06-26T02:41:45;9.00;;;6.85;;
22318;SDS011;11327;52.334;9.506;2023-06-26T02:45:06;7.75;;;6.90;;
22318;SDS011;11327;52.334;9.506;2023-06-26T02:48:28;8.03;;;6.75;;
22318;SDS011;11327;52.334;9.506;2023-06-26T02:51:50;7.50;;;6.15;;
22318;SDS011;11327;52.334;9.506;2023-06-26T02:55:11;9.88;;;6.95;;
22318;SDS011;11327;52.334;9.506;2023-06-26T02:58:32;6.80;;;6.03;;
22318;SDS011;11327;52.334;9.506;2023-06-26T03:01:53;7.47;;;6.47;;
22318;SDS011;11327;52.334;9.506;2023-06-26T03:05:13;6.60;;;5.90;;
22318;SDS011;11327;52.334;9.506;2023-06-26T03:08:36;6.37;;;5.78;;
22318;SDS011;11327;52.334;9.506;2023-06-26T03:11:58;6.65;;;5.90;;
22318;SDS011;11327;52.334;9.506;2023-06-26T03:15:18;6.90;;;5.70;;
22318;SDS011;11327;52.334;9.506;2023-06-26T03:18:39;6.40;;;5.80;;
22318;SDS011;11327;52.334;9.506;2023-06-26T03:22:00;7.75;;;6.17;;
22318;SDS011;11327;52.334;9.506;2023-06-26T03:25:21;6.08;;;5.47;;
22318;SDS011;11327;52.334;9.506;2023-06-26T03:28:42;6.53;;;5.70;;
22318;SDS011;11327;52.334;9.506;2023-06-26T03:32:02;7.33;;;6.15;;
22318;SDS011;11327;52.334;9.506;2023-06-26T03:35:23;6.87;;;5.83;;
22318;SDS011;11327;52.334;9.506;2023-06-26T03:38:45;6.95;;;5.60;;
22318;SDS011;11327;52.334;9.506;2023-06-26T03:42:06;6.15;;;5.62;;
22318;SDS011;11327;52.334;9.506;2023-06-26T03:45:27;8.28;;;5.92;;
22318;SDS011;11327;52.334;9.506;2023-06-26T03:48:48;6.92;;;5.95;;
22318;SDS011;11327;52.334;9.506;2023-06-26T03:52:09;6.17;;;5.58;;
22318;SDS011;11327;52.334;9.506;2023-06-26T03:55:29;7.03;;;5.62;;
22318;SDS011;11327;52.334;9.506;2023-06-26T03:58:50;7.05;;;5.92;;
22318;SDS011;11327;52.334;9.506;2023-06-26T04:02:11;6.85;;;6.15;;
22318;SDS011;11327;52.334;9.506;2023-06-26T04:05:32;6.50;;;5.53;;
22318;SDS011;11327;52.334;9.506;2023-06-26T04:08:53;6.97;;;6.17;;
22318;SDS011;11327;52.334;9.506;2023-06-26T04:12:14;7.05;;;5.92;;
22318;SDS011;11327;52.334;9.506;2023-06-26T04:15:34;6.30;;;5.70;;
22318;SDS011;11327;52.334;9.506;2023-06-26T04:18:55;9.23;;;6.10;;
22318;SDS011;11327;52.334;9.506;2023-06-26T04:22:16;7.22;;;5.92;;
22318;SDS011;11327;52.334;9.506;2023-06-26T04:25:37;6.10;;;5.42;;
22318;SDS011;11327;52.334;9.506;2023-06-26T04:28:58;8.80;;;6.97;;
22318;SDS011;11327;52.334;9.506;2023-06-26T04:32:19;7.50;;;6.60;;
22318;SDS011;11327;52.334;9.506;2023-06-26T04:35:40;7.42;;;6.47;;
22318;SDS011;11327;52.334;9.506;2023-06-26T04:39:01;6.58;;;5.90;;
22318;SDS011;11327;52.334;9.506;2023-06-26T04:42:22;6.72;;;6.00;;
22318;SDS011;11327;52.334;9.506;2023-06-26T04:45:42;6.80;;;6.20;;
22318;SDS011;11327;52.334;9.506;2023-06-26T04:49:03;6.97;;;5.95;;
22318;SDS011;11327;52.334;9.506;2023-06-26T04:52:24;6.70;;;6.10;;
22318;SDS011;11327;52.334;9.506;2023-06-26T04:55:45;6.70;;;5.58;;
22318;SDS011;11327;52.334;9.506;2023-06-26T04:59:05;6.67;;;6.00;;
22318;SDS011;11327;52.334;9.506;2023-06-26T05:02:27;7.20;;;6.00;;
22318;SDS011;11327;52.334;9.506;2023-06-26T05:05:47;7.62;;;5.90;;
22318;SDS011;11327;52.334;9.506;2023-06-26T05:09:08;7.08;;;6.30;;
22318;SDS011;11327;52.334;9.506;2023-06-26T05:12:31;6.70;;;6.00;;
22318;SDS011;11327;52.334;9.506;2023-06-26T05:15:52;6.62;;;6.00;;
22318;SDS011;11327;52.334;9.506;2023-06-26T05:19:13;6.65;;;6.03;;
22318;SDS011;11327;52.334;9.506;2023-06-26T05:22:33;6.03;;;5.50;;
22318;SDS011;11327;52.334;9.506;2023-06-26T05:25:55;6.70;;;6.10;;
22318;SDS011;11327;52.334;9.506;2023-06-26T05:29:16;6.80;;;6.10;;
22318;SDS011;11327;52.334;9.506;2023-06-26T05:32:38;6.87;;;6.28;;
22318;SDS011;11327;52.334;9.506;2023-06-26T05:36:00;6.78;;;6.17;;
22318;SDS011;11327;52.334;9.506;2023-06-26T05:39:24;6.30;;;5.70;;
22318;SDS011;11327;52.334;9.506;2023-06-26T05:42:45;7.12;;;6.42;;
22318;SDS011;11327;52.334;9.506;2023-06-26T05:46:06;7.22;;;6.30;;
22318;SDS011;11327;52.334;9.506;2023-06-26T05:49:27;6.47;;;5.87;;
22318;SDS011;11327;52.334;9.506;2023-06-26T05:52:48;6.75;;;6.15;;
22318;SDS011;11327;52.334;9.506;2023-06-26T05:56:09;6.83;;;6.15;;
22318;SDS011;11327;52.334;9.506;2023-06-26T05:59:31;9.38;;;6.53;;
22318;SDS011;11327;52.334;9.506;2023-06-26T06:02:52;6.70;;;6.00;;
22318;SDS011;11327;52.334;9.506;2023-06-26T06:06:14;6.95;;;6.25;;
22318;SDS011;11327;52.334;9.506;2023-06-26T06:09:36;7.65;;;6.60;;
22318;SDS011;11327;52.334;9.506;2023-06-26T06:12:58;7.58;;;6.50;;
22318;SDS011;11327;52.334;9.506;2023-06-26T06:16:18;9.15;;;6.17;;
22318;SDS011;11327;52.334;9.506;2023-06-26T06:19:39;6.70;;;6.10;;
22318;SDS011;11327;52.334;9.506;2023-06-26T06:23:00;7.20;;;6.35;;
22318;SDS011;11327;52.334;9.506;2023-06-26T06:26:20;8.38;;;6.40;;
22318;SDS011;11327;52.334;9.506;2023-06-26T06:29:41;7.25;;;6.10;;
22318;SDS011;11327;52.334;9.506;2023-06-26T06:33:02;6.72;;;6.12;;
22318;SDS011;11327;52.334;9.506;2023-06-26T06:36:23;7.05;;;6.35;;
22318;SDS011;11327;52.334;9.506;2023-06-26T06:39:44;7.37;;;6.67;;
22318;SDS011;11327;52.334;9.506;2023-06-26T06:43:04;7.20;;;6.50;;
22318;SDS011;11327;52.334;9.506;2023-06-26T06:46:25;6.50;;;5.90;;
22318;SDS011;11327;52.334;9.506;2023-06-26T06:49:47;7.58;;;6.30;;
22318;SDS011;11327;52.334;9.506;2023-06-26T06:53:08;6.60;;;6.00;;
22318;SDS011;11327;52.334;9.506;2023-06-26T06:56:28;6.90;;;6.20;;
22318;SDS011;11327;52.334;9.506;2023-06-26T06:59:49;7.42;;;6.20;;
22318;SDS011;11327;52.334;9.506;2023-06-26T07:03:10;8.18;;;6.20;;
22318;SDS011;11327;52.334;9.506;2023-06-26T07:06:31;9.18;;;6.70;;
22318;SDS011;11327;52.334;9.506;2023-06-26T07:09:51;8.70;;;6.78;;
22318;SDS011;11327;52.334;9.506;2023-06-26T07:13:12;7.67;;;6.65;;
22318;SDS011;11327;52.334;9.506;2023-06-26T07:16:33;7.87;;;6.58;;
22318;SDS011;11327;52.334;9.506;2023-06-26T07:19:53;7.45;;;6.60;;
22318;SDS011;11327;52.334;9.506;2023-06-26T07:23:14;7.30;;;6.60;;
22318;SDS011;11327;52.334;9.506;2023-06-26T07:26:35;7.33;;;6.53;;
22318;SDS011;11327;52.334;9.506;2023-06-26T07:29:56;7.85;;;7.03;;
22318;SDS011;11327;52.334;9.506;2023-06-26T07:33:16;7.67;;;6.83;;
22318;SDS011;11327;52.334;9.506;2023-06-26T07:36:37;8.60;;;6.75;;
22318;SDS011;11327;52.334;9.506;2023-06-26T07:39:58;7.42;;;6.72;;
22318;SDS011;11327;52.334;9.506;2023-06-26T07:43:18;7.35;;;6.47;;
22318;SDS011;11327;52.334;9.506;2023-06-26T07:46:39;8.80;;;6.70;;
22318;SDS011;11327;52.334;9.506;2023-06-26T07:50:00;9.20;;;6.90;;
22318;SDS011;11327;52.334;9.506;2023-06-26T07:53:20;7.42;;;6.62;;
22318;SDS011;11327;52.334;9.506;2023-06-26T07:56:57;7.47;;;6.65;;
22318;SDS011;11327;52.334;9.506;2023-06-26T08:00:20;7.92;;;6.83;;
22318;SDS011;11327;52.334;9.506;2023-06-26T08:03:41;7.37;;;6.67;;
22318;SDS011;11327;52.334;9.506;2023-06-26T08:07:02;8.80;;;7.00;;
22318;SDS011;11327;52.334;9.506;2023-06-26T08:10:24;7.30;;;6.60;;
22318;SDS011;11327;52.334;9.506;2023-06-26T08:13:44;7.25;;;6.60;;
22318;SDS011;11327;52.334;9.506;2023-06-26T08:17:05;10.63;;;7.40;;
22318;SDS011;11327;52.334;9.506;2023-06-26T08:20:26;8.25;;;7.40;;
22318;SDS011;11327;52.334;9.506;2023-06-26T08:23:46;8.13;;;7.28;;
22318;SDS011;11327;52.334;9.506;2023-06-26T08:27:07;8.43;;;7.30;;
22318;SDS011;11327;52.334;9.506;2023-06-26T08:30:28;7.60;;;6.90;;
22318;SDS011;11327;52.334;9.506;2023-06-26T08:33:49;8.60;;;7.47;;
22318;SDS011;11327;52.334;9.506;2023-06-26T08:37:09;8.03;;;7.22;;
22318;SDS011;11327;52.334;9.506;2023-06-26T08:40:30;9.05;;;8.15;;
22318;SDS011;11327;52.334;9.506;2023-06-26T08:43:52;8.90;;;8.00;;
22318;SDS011;11327;52.334;9.506;2023-06-26T08:47:13;9.13;;;8.23;;
22318;SDS011;11327;52.334;9.506;2023-06-26T08:50:34;9.25;;;8.35;;
22318;SDS011;11327;52.334;9.506;2023-06-26T08:53:57;9.55;;;8.55;;
22318;SDS011;11327;52.334;9.506;2023-06-26T08:57:18;12.10;;;8.93;;
22318;SDS011;11327;52.334;9.506;2023-06-26T09:00:41;9.78;;;8.78;;
22318;SDS011;11327;52.334;9.506;2023-06-26T09:04:02;12.35;;;9.38;;
22318;SDS011;11327;52.334;9.506;2023-06-26T09:07:23;10.98;;;8.55;;
22318;SDS011;11327;52.334;9.506;2023-06-26T09:10:44;12.25;;;8.10;;
22318;SDS011;11327;52.334;9.506;2023-06-26T09:14:04;9.75;;;8.10;;
22318;SDS011;11327;52.334;9.506;2023-06-26T09:17:29;12.75;;;9.18;;
22318;SDS011;11327;52.334;9.506;2023-06-26T09:20:50;12.98;;;9.30;;
22318;SDS011;11327;52.334;9.506;2023-06-26T09:24:11;13.72;;;9.33;;
22318;SDS011;11327;52.334;9.506;2023-06-26T09:27:33;12.58;;;9.40;;
22318;SDS011;11327;52.334;9.506;2023-06-26T09:30:54;10.60;;;9.48;;
22318;SDS011;11327;52.334;9.506;2023-06-26T09:34:15;12.70;;;10.20;;
22318;SDS011;11327;52.334;9.506;2023-06-26T09:37:35;11.03;;;8.95;;
22318;SDS011;11327;52.334;9.506;2023-06-26T09:40:56;14.23;;;9.50;;
22318;SDS011;11327;52.334;9.506;2023-06-26T09:44:17;19.67;;;9.83;;
22318;SDS011;11327;52.334;9.506;2023-06-26T09:47:38;11.18;;;9.30;;
22318;SDS011;11327;52.334;9.506;2023-06-26T09:51:03;12.70;;;9.43;;
22318;SDS011;11327;52.334;9.506;2023-06-26T09:54:23;11.18;;;9.85;;
22318;SDS011;11327;52.334;9.506;2023-06-26T09:57:47;13.03;;;10.68;;
22318;SDS011;11327;52.334;9.506;2023-06-26T10:01:08;15.32;;;11.70;;
22318;SDS011;11327;52.334;9.506;2023-06-26T10:04:29;15.00;;;11.43;;
22318;SDS011;11327;52.334;9.506;2023-06-26T10:07:50;12.43;;;10.30;;
22318;SDS011;11327;52.334;9.506;2023-06-26T10:11:14;11.28;;;9.93;;
22318;SDS011;11327;52.334;9.506;2023-06-26T10:14:37;12.23;;;9.63;;
22318;SDS011;11327;52.334;9.506;2023-06-26T10:17:59;14.13;;;9.88;;
22318;SDS011;11327;52.334;9.506;2023-06-26T10:21:20;12.28;;;8.78;;
22318;SDS011;11327;52.334;9.506;2023-06-26T10:24:43;11.12;;;8.80;;
22318;SDS011;11327;52.334;9.506;2023-06-26T10:28:06;12.25;;;8.53;;
22318;SDS011;11327;52.334;9.506;2023-06-26T10:31:28;12.50;;;8.50;;
22318;SDS011;11327;52.334;9.506;2023-06-26T10:34:50;10.95;;;8.38;;
22318;SDS011;11327;52.334;9.506;2023-06-26T10:38:12;9.83;;;8.55;;
22318;SDS011;11327;52.334;9.506;2023-06-26T10:41:37;8.78;;;7.83;;
22318;SDS011;11327;52.334;9.506;2023-06-26T10:45:19;10.32;;;8.45;;
22318;SDS011;11327;52.334;9.506;2023-06-26T10:49:14;10.98;;;8.65;;
22318;SDS011;11327;52.334;9.506;2023-06-26T10:52:19;11.38;;;8.58;;
22318;SDS011;11327;52.334;9.506;2023-06-26T10:55:41;11.68;;;9.83;;
22318;SDS011;11327;52.334;9.506;2023-06-26T10:59:21;11.60;;;9.65;;
22318;SDS011;11327;52.334;9.506;2023-06-26T11:02:48;13.48;;;9.98;;
22318;SDS011;11327;52.334;9.506;2023-06-26T11:06:11;10.53;;;9.13;;
22318;SDS011;11327;52.334;9.506;2023-06-26T11:09:32;10.70;;;9.43;;
22318;SDS011;11327;52.334;9.506;2023-06-26T11:12:57;11.63;;;9.35;;
22318;SDS011;11327;52.334;9.506;2023-06-26T11:16:18;13.45;;;10.93;;
22318;SDS011;11327;52.334;9.506;2023-06-26T11:19:39;12.65;;;10.40;;
22318;SDS011;11327;52.334;9.506;2023-06-26T11:23:03;11.93;;;10.72;;
22318;SDS011;11327;52.334;9.506;2023-06-26T11:26:26;10.70;;;9.60;;
22318;SDS011;11327;52.334;9.506;2023-06-26T11:29:47;12.20;;;10.80;;
22318;SDS011;11327;52.334;9.506;2023-06-26T11:33:10;14.23;;;12.68;;
22318;SDS011;11327;52.334;9.506;2023-06-26T11:36:31;14.35;;;12.82;;
22318;SDS011;11327;52.334;9.506;2023-06-26T11:39:52;13.80;;;12.43;;
22318;SDS011;11327;52.334;9.506;2023-06-26T11:43:13;10.93;;;9.83;;
22318;SDS011;11327;52.334;9.506;2023-06-26T11:46:35;8.48;;;7.45;;
22318;SDS011;11327;52.334;9.506;2023-06-26T11:49:56;7.40;;;6.58;;
22318;SDS011;11327;52.334;9.506;2023-06-26T11:53:17;5.67;;;4.30;;
22318;SDS011;11327;52.334;9.506;2023-06-26T11:56:38;8.85;;;5.00;;
22318;SDS011;11327;52.334;9.506;2023-06-26T12:00:09;6.83;;;4.30;;
22318;SDS011;11327;52.334;9.506;2023-06-26T12:03:31;4.70;;;4.17;;
22318;SDS011;11327;52.334;9.506;2023-06-26T12:06:53;5.62;;;4.53;;
22318;SDS011;11327;52.334;9.506;2023-06-26T12:10:17;7.00;;;4.33;;
22318;SDS011;11327;52.334;9.506;2023-06-26T12:13:39;5.62;;;4.47;;
22318;SDS011;11327;52.334;9.506;2023-06-26T12:17:13;6.03;;;4.58;;
22318;SDS011;11327;52.334;9.506;2023-06-26T12:20:32;11.65;;;4.60;;
22318;SDS011;11327;52.334;9.506;2023-06-26T12:23:58;4.97;;;4.10;;
22318;SDS011;11327;52.334;9.506;2023-06-26T12:27:19;6.53;;;4.58;;
22318;SDS011;11327;52.334;9.506;2023-06-26T12:30:40;6.78;;;4.60;;
22318;SDS011;11327;52.334;9.506;2023-06-26T12:34:08;7.15;;;4.40;;
22318;SDS011;11327;52.334;9.506;2023-06-26T12:37:36;6.05;;;4.40;;
22318;SDS011;11327;52.334;9.506;2023-06-26T12:41:00;9.63;;;4.10;;
22318;SDS011;11327;52.334;9.506;2023-06-26T12:44:21;5.65;;;3.42;;
22318;SDS011;11327;52.334;9.506;2023-06-26T12:47:43;4.97;;;3.47;;
22318;SDS011;11327;52.334;9.506;2023-06-26T12:51:10;3.65;;;3.15;;
22318;SDS011;11327;52.334;9.506;2023-06-26T12:54:31;4.47;;;3.08;;
22318;SDS011;11327;52.334;9.506;2023-06-26T12:57:54;4.47;;;3.08;;
22318;SDS011;11327;52.334;9.506;2023-06-26T13:01:14;3.25;;;2.95;;
22318;SDS011;11327;52.334;9.506;2023-06-26T13:04:35;4.62;;;3.12;;
22318;SDS011;11327;52.334;9.506;2023-06-26T13:07:56;6.05;;;3.47;;
22318;SDS011;11327;52.334;9.506;2023-06-26T13:11:17;7.80;;;3.50;;
22318;SDS011;11327;52.334;9.506;2023-06-26T13:14:38;4.55;;;3.00;;
22318;SDS011;11327;52.334;9.506;2023-06-26T13:17:59;4.75;;;3.02;;
22318;SDS011;11327;52.334;9.506;2023-06-26T13:21:20;4.50;;;2.70;;
22318;SDS011;11327;52.334;9.506;2023-06-26T13:24:40;4.22;;;2.90;;
22318;SDS011;11327;52.334;9.506;2023-06-26T13:28:01;3.25;;;2.47;;
22318;SDS011;11327;52.334;9.506;2023-06-26T13:31:22;4.17;;;2.87;;
22318;SDS011;11327;52.334;9.506;2023-06-26T13:34:43;5.25;;;2.80;;
22318;SDS011;11327;52.334;9.506;2023-06-26T13:38:04;2.98;;;2.30;;
22318;SDS011;11327;52.334;9.506;2023-06-26T13:41:25;3.58;;;2.60;;
22318;SDS011;11327;52.334;9.506;2023-06-26T13:44:46;4.35;;;2.90;;
22318;SDS011;11327;52.334;9.506;2023-06-26T13:48:06;4.03;;;2.50;;
22318;SDS011;11327;52.334;9.506;2023-06-26T13:51:27;4.30;;;2.50;;
22318;SDS011;11327;52.334;9.506;2023-06-26T13:54:48;2.75;;;2.20;;
22318;SDS011;11327;52.334;9.506;2023-06-26T13:58:09;3.40;;;2.33;;
22318;SDS011;11327;52.334;9.506;2023-06-26T14:01:31;2.72;;;2.20;;
22318;SDS011;11327;52.334;9.506;2023-06-26T14:04:52;6.35;;;2.87;;
22318;SDS011;11327;52.334;9.506;2023-06-26T14:08:13;5.50;;;2.40;;
22318;SDS011;11327;52.334;9.506;2023-06-26T14:11:34;3.25;;;2.17;;
22318;SDS011;11327;52.334;9.506;2023-06-26T14:14:55;4.17;;;2.30;;
22318;SDS011;11327;52.334;9.506;2023-06-26T14:18:15;3.27;;;1.92;;
22318;SDS011;11327;52.334;9.506;2023-06-26T14:21:38;5.22;;;2.50;;
22318;SDS011;11327;52.334;9.506;2023-06-26T14:24:58;3.77;;;1.82;;
22318;SDS011;11327;52.334;9.506;2023-06-26T14:28:19;3.90;;;2.20;;
22318;SDS011;11327;52.334;9.506;2023-06-26T14:31:40;4.10;;;2.20;;
22318;SDS011;11327;52.334;9.506;2023-06-26T14:35:01;4.03;;;1.90;;
22318;SDS011;11327;52.334;9.506;2023-06-26T14:38:22;3.10;;;2.17;;
22318;SDS011;11327;52.334;9.506;2023-06-26T14:41:42;4.00;;;2.20;;
22318;SDS011;11327;52.334;9.506;2023-06-26T14:45:03;3.05;;;2.10;;
22318;SDS011;11327;52.334;9.506;2023-06-26T14:48:24;4.10;;;2.02;;
22318;SDS011;11327;52.334;9.506;2023-06-26T14:51:45;2.90;;;1.87;;
22318;SDS011;11327;52.334;9.506;2023-06-26T14:55:06;3.83;;;2.20;;
22318;SDS011;11327;52.334;9.506;2023-06-26T14:58:27;5.12;;;2.20;;
22318;SDS011;11327;52.334;9.506;2023-06-26T15:01:48;4.70;;;1.90;;
22318;SDS011;11327;52.334;9.506;2023-06-26T15:05:09;4.78;;;2.27;;
22318;SDS011;11327;52.334;9.506;2023-06-26T15:08:29;4.97;;;2.35;;
22318;SDS011;11327;52.334;9.506;2023-06-26T15:11:50;3.30;;;2.50;;
22318;SDS011;11327;52.334;9.506;2023-06-26T15:15:11;5.22;;;2.20;;
22318;SDS011;11327;52.334;9.506;2023-06-26T15:18:32;4.62;;;2.05;;
22318;SDS011;11327;52.334;9.506;2023-06-26T15:21:52;4.72;;;2.20;;
22318;SDS011;11327;52.334;9.506;2023-06-26T15:25:13;4.83;;;2.52;;
22318;SDS011;11327;52.334;9.506;2023-06-26T15:28:34;3.72;;;2.35;;
22318;SDS011;11327;52.334;9.506;2023-06-26T15:31:55;5.65;;;2.22;;
22318;SDS011;11327;52.334;9.506;2023-06-26T15:35:15;4.45;;;2.27;;
22318;SDS011;11327;52.334;9.506;2023-06-26T15:38:36;4.50;;;2.30;;
22318;SDS011;11327;52.334;9.506;2023-06-26T15:41:57;3.02;;;2.05;;
22318;SDS011;11327;52.334;9.506;2023-06-26T15:45:18;4.12;;;2.50;;
22318;SDS011;11327;52.334;9.506;2023-06-26T15:48:39;5.25;;;2.00;;
22318;SDS011;11327;52.334;9.506;2023-06-26T15:51:59;5.80;;;2.05;;
22318;SDS011;11327;52.334;9.506;2023-06-26T15:55:20;3.92;;;2.10;;
22318;SDS011;11327;52.334;9.506;2023-06-26T15:58:41;5.85;;;2.20;;
22318;SDS011;11327;52.334;9.506;2023-06-26T16:02:02;3.27;;;2.20;;
22318;SDS011;11327;52.334;9.506;2023-06-26T16:05:23;4.33;;;1.82;;
22318;SDS011;11327;52.334;9.506;2023-06-26T16:08:45;5.12;;;2.20;;
22318;SDS011;11327;52.334;9.506;2023-06-26T16:12:08;5.28;;;1.90;;
22318;SDS011;11327;52.334;9.506;2023-06-26T16:15:29;3.35;;;1.80;;
22318;SDS011;11327;52.334;9.506;2023-06-26T16:18:50;3.45;;;1.85;;
22318;SDS011;11327;52.334;9.506;2023-06-26T16:22:10;6.00;;;1.80;;
22318;SDS011;11327;52.334;9.506;2023-06-26T16:25:32;4.75;;;2.00;;
22318;SDS011;11327;52.334;9.506;2023-06-26T16:28:52;2.80;;;1.80;;
22318;SDS011;11327;52.334;9.506;2023-06-26T16:32:13;4.75;;;1.90;;
22318;SDS011;11327;52.334;9.506;2023-06-26T16:35:34;3.15;;;1.80;;
22318;SDS011;11327;52.334;9.506;2023-06-26T16:38:55;4.30;;;1.75;;
22318;SDS011;11327;52.334;9.506;2023-06-26T16:42:15;5.20;;;1.72;;
22318;SDS011;11327;52.334;9.506;2023-06-26T16:45:38;4.37;;;1.77;;
22318;SDS011;11327;52.334;9.506;2023-06-26T16:48:59;4.05;;;1.70;;
22318;SDS011;11327;52.334;9.506;2023-06-26T16:52:20;2.92;;;1.52;;
22318;SDS011;11327;52.334;9.506;2023-06-26T16:55:40;2.45;;;1.77;;
22318;SDS011;11327;52.334;9.506;2023-06-26T16:59:01;3.87;;;1.70;;
22318;SDS011;11327;52.334;9.506;2023-06-26T17:02:22;5.72;;;1.95;;
22318;SDS011;11327;52.334;9.506;2023-06-26T17:05:43;3.50;;;1.90;;
22318;SDS011;11327;52.334;9.506;2023-06-26T17:09:04;5.03;;;1.70;;
22318;SDS011;11327;52.334;9.506;2023-06-26T17:12:24;2.25;;;1.52;;
22318;SDS011;11327;52.334;9.506;2023-06-26T17:15:46;4.28;;;1.50;;
22318;SDS011;11327;52.334;9.506;2023-06-26T17:19:07;3.42;;;1.67;;
22318;SDS011;11327;52.334;9.506;2023-06-26T17:22:27;4.10;;;1.60;;
22318;SDS011;11327;52.334;9.506;2023-06-26T17:25:48;3.75;;;1.50;;
22318;SDS011;11327;52.334;9.506;2023-06-26T17:29:09;4.45;;;1.40;;
22318;SDS011;11327;52.334;9.506;2023-06-26T17:32:30;6.37;;;1.30;;
22318;SDS011;11327;52.334;9.506;2023-06-26T17:35:51;2.70;;;1.27;;
22318;SDS011;11327;52.334;9.506;2023-06-26T17:39:11;3.85;;;1.30;;
22318;SDS011;11327;52.334;9.506;2023-06-26T17:42:32;3.20;;;1.55;;
22318;SDS011;11327;52.334;9.506;2023-06-26T17:45:53;6.40;;;1.45;;
22318;SDS011;11327;52.334;9.506;2023-06-26T17:49:13;3.72;;;1.17;;
22318;SDS011;11327;52.334;9.506;2023-06-26T17:52:34;2.15;;;1.10;;
22318;SDS011;11327;52.334;9.506;2023-06-26T17:55:55;2.37;;;1.30;;
22318;SDS011;11327;52.334;9.506;2023-06-26T17:59:15;2.35;;;1.12;;
22318;SDS011;11327;52.334;9.506;2023-06-26T18:02:36;3.30;;;1.37;;
22318;SDS011;11327;52.334;9.506;2023-06-26T18:06:00;3.50;;;1.30;;
22318;SDS011;11327;52.334;9.506;2023-06-26T18:09:21;4.00;;;1.17;;
22318;SDS011;11327;52.334;9.506;2023-06-26T18:12:42;3.10;;;1.10;;
22318;SDS011;11327;52.334;9.506;2023-06-26T18:16:03;2.70;;;1.00;;
22318;SDS011;11327;52.334;9.506;2023-06-26T18:19:25;4.55;;;1.15;;
22318;SDS011;11327;52.334;9.506;2023-06-26T18:22:46;2.35;;;1.22;;
22318;SDS011;11327;52.334;9.506;2023-06-26T18:26:08;4.60;;;1.30;;
22318;SDS011;11327;52.334;9.506;2023-06-26T18:29:29;4.00;;;1.20;;
22318;SDS011;11327;52.334;9.506;2023-06-26T18:32:50;7.10;;;1.45;;
22318;SDS011;11327;52.334;9.506;2023-06-26T18:36:10;3.70;;;1.20;;
22318;SDS011;11327;52.334;9.506;2023-06-26T18:39:33;2.58;;;1.00;;
22318;SDS011;11327;52.334;9.506;2023-06-26T18:42:54;3.42;;;1.10;;
22318;SDS011;11327;52.334;9.506;2023-06-26T18:46:14;2.85;;;1.07;;
22318;SDS011;11327;52.334;9.506;2023-06-26T18:49:35;3.25;;;0.90;;
22318;SDS011;11327;52.334;9.506;2023-06-26T18:52:56;4.58;;;1.20;;
22318;SDS011;11327;52.334;9.506;2023-06-26T18:56:17;2.60;;;1.15;;
22318;SDS011;11327;52.334;9.506;2023-06-26T18:59:38;3.33;;;1.10;;
22318;SDS011;11327;52.334;9.506;2023-06-26T19:02:59;3.25;;;1.20;;
22318;SDS011;11327;52.334;9.506;2023-06-26T19:06:20;3.50;;;1.30;;
22318;SDS011;11327;52.334;9.506;2023-06-26T19:09:40;3.50;;;1.10;;
22318;SDS011;11327;52.334;9.506;2023-06-26T19:13:01;3.27;;;1.20;;
22318;SDS011;11327;52.334;9.506;2023-06-26T19:16:22;4.97;;;1.15;;
22318;SDS011;11327;52.334;9.506;2023-06-26T19:19:43;2.55;;;0.82;;
22318;SDS011;11327;52.334;9.506;2023-06-26T19:23:04;5.25;;;1.07;;
22318;SDS011;11327;52.334;9.506;2023-06-26T19:26:25;2.98;;;1.20;;
22318;SDS011;11327;52.334;9.506;2023-06-26T19:29:45;3.27;;;1.20;;
22318;SDS011;11327;52.334;9.506;2023-06-26T19:33:06;1.65;;;1.05;;
22318;SDS011;11327;52.334;9.506;2023-06-26T19:36:27;2.35;;;1.35;;
22318;SDS011;11327;52.334;9.506;2023-06-26T19:39:48;4.22;;;1.35;;
22318;SDS011;11327;52.334;9.506;2023-06-26T19:43:09;4.42;;;1.65;;
22318;SDS011;11327;52.334;9.506;2023-06-26T19:46:30;3.90;;;1.30;;
22318;SDS011;11327;52.334;9.506;2023-06-26T19:49:51;3.95;;;1.35;;
22318;SDS011;11327;52.334;9.506;2023-06-26T19:53:11;5.97;;;2.15;;
22318;SDS011;11327;52.334;9.506;2023-06-26T19:56:32;4.75;;;1.52;;
22318;SDS011;11327;52.334;9.506;2023-06-26T19:59:53;3.42;;;2.05;;
22318;SDS011;11327;52.334;9.506;2023-06-26T20:03:13;2.52;;;1.47;;
22318;SDS011;11327;52.334;9.506;2023-06-26T20:06:35;4.60;;;1.52;;
22318;SDS011;11327;52.334;9.506;2023-06-26T20:09:57;3.70;;;1.75;;